createdAt,value
2018-06-27T00:01:19.469Z,10.90
2018-06-27T00:03:47.849Z,10.37
2018-06-27T00:06:16.296Z,11.33
2018-06-27T00:08:44.702Z,11.70
2018-06-27T00:11:13.149Z,10.37
2018-06-27T00:13:42.022Z,10.63
2018-06-27T00:16:10.458Z,11.27
2018-06-27T00:18:38.845Z,11.50
2018-06-27T00:21:07.277Z,11.87
2018-06-27T00:23:35.769Z,10.57
2018-06-27T00:26:04.457Z,11.67
2018-06-27T00:28:32.923Z,11.60
2018-06-27T00:31:01.334Z,10.77
2018-06-27T00:33:29.698Z,10.43
2018-06-27T00:35:58.296Z,10.07
2018-06-27T00:38:26.710Z,11.10
2018-06-27T00:40:55.129Z,10.50
2018-06-27T00:43:23.569Z,11.00
2018-06-27T00:45:51.985Z,10.17
2018-06-27T00:48:20.413Z,10.80
2018-06-27T00:50:48.870Z,10.27
2018-06-27T00:53:17.268Z,10.97
2018-06-27T00:55:45.645Z,9.93
2018-06-27T00:58:14.328Z,10.40
2018-06-27T01:00:42.728Z,10.40
2018-06-27T01:03:11.119Z,9.80
2018-06-27T01:05:39.532Z,10.10
2018-06-27T01:08:07.924Z,10.57
2018-06-27T01:10:36.370Z,9.90
2018-06-27T01:13:04.785Z,11.03
2018-06-27T01:15:33.224Z,11.10
2018-06-27T01:18:01.598Z,10.47
2018-06-27T01:20:29.956Z,10.00
2018-06-27T01:22:58.960Z,10.93
2018-06-27T01:25:27.316Z,11.57
2018-06-27T01:27:55.739Z,10.93
2018-06-27T01:30:24.105Z,10.63
2018-06-27T01:32:52.790Z,11.03
2018-06-27T01:35:21.217Z,10.40
2018-06-27T01:37:49.523Z,11.33
2018-06-27T01:40:18.004Z,11.50
2018-06-27T01:42:46.108Z,10.93
2018-06-27T01:45:14.532Z,10.60
2018-06-27T01:47:43.165Z,10.97
2018-06-27T01:50:11.605Z,11.20
2018-06-27T01:52:40.101Z,11.00
2018-06-27T01:55:08.521Z,12.33
2018-06-27T01:57:36.895Z,11.17
2018-06-27T02:00:07.274Z,11.00
2018-06-27T02:02:35.727Z,11.40
2018-06-27T02:05:05.172Z,11.00
2018-06-27T02:07:33.594Z,11.83
2018-06-27T02:10:01.998Z,12.60
2018-06-27T02:12:30.441Z,12.10
2018-06-27T02:14:59.203Z,11.23
2018-06-27T02:17:27.583Z,11.30
2018-06-27T02:19:55.955Z,10.90
2018-06-27T02:22:24.340Z,11.47
2018-06-27T02:24:52.829Z,11.63
2018-06-27T02:27:21.225Z,11.93
2018-06-27T02:29:49.582Z,12.20
2018-06-27T02:32:18.709Z,11.57
2018-06-27T02:34:47.773Z,11.40
2018-06-27T02:37:16.956Z,10.53
2018-06-27T02:39:45.996Z,11.70
2018-06-27T02:42:14.781Z,11.60
2018-06-27T02:44:43.770Z,11.70
2018-06-27T02:47:12.239Z,12.77
2018-06-27T02:49:40.676Z,12.20
2018-06-27T02:52:08.999Z,11.80
2018-06-27T02:54:37.394Z,12.90
2018-06-27T02:57:06.073Z,12.00
2018-06-27T02:59:34.599Z,13.73
2018-06-27T03:02:03.005Z,12.53
2018-06-27T03:04:31.385Z,12.90
2018-06-27T03:06:59.782Z,12.77
2018-06-27T03:09:28.146Z,13.23
2018-06-27T03:11:56.556Z,13.50
2018-06-27T03:14:24.682Z,12.60
2018-06-27T03:16:53.135Z,13.33
2018-06-27T03:19:21.508Z,13.03
2018-06-27T03:21:49.918Z,12.83
2018-06-27T03:24:18.324Z,13.20
2018-06-27T03:26:46.694Z,12.60
2018-06-27T03:29:15.416Z,12.20
2018-06-27T03:31:43.749Z,11.83
2018-06-27T03:34:12.172Z,12.53
2018-06-27T03:36:40.630Z,11.57
2018-06-27T03:39:09.371Z,12.20
2018-06-27T03:41:37.831Z,11.47
2018-06-27T03:44:06.484Z,12.50
2018-06-27T03:46:34.932Z,12.20
2018-06-27T03:49:03.364Z,12.40
2018-06-27T03:51:31.744Z,13.30
2018-06-27T03:54:00.478Z,12.03
2018-06-27T03:56:29.163Z,12.60
2018-06-27T03:58:57.499Z,11.20
2018-06-27T04:01:25.905Z,12.07
2018-06-27T04:03:54.325Z,12.43
2018-06-27T04:06:22.665Z,12.23
2018-06-27T04:08:51.018Z,12.70
2018-06-27T04:11:19.400Z,12.13
2018-06-27T04:13:47.738Z,12.20
2018-06-27T04:16:16.077Z,12.00
2018-06-27T04:18:44.503Z,12.17
2018-06-27T04:21:12.919Z,12.03
2018-06-27T04:23:41.293Z,12.80
2018-06-27T04:26:09.681Z,12.17
2018-06-27T04:28:38.030Z,12.30
2018-06-27T04:31:06.450Z,11.50
2018-06-27T04:33:34.812Z,12.03
2018-06-27T04:36:03.257Z,12.63
2018-06-27T04:38:31.693Z,12.37
2018-06-27T04:41:00.165Z,12.97
2018-06-27T04:43:28.571Z,13.37
2018-06-27T04:45:57.194Z,13.73
2018-06-27T04:48:25.616Z,12.93
2018-06-27T04:50:54.148Z,13.53
2018-06-27T04:53:22.574Z,13.03
2018-06-27T04:55:51.012Z,12.60
2018-06-27T04:58:19.368Z,13.73
2018-06-27T05:00:47.843Z,12.17
2018-06-27T05:03:16.252Z,15.07
2018-06-27T05:05:45.002Z,13.80
2018-06-27T05:08:13.656Z,13.90
2018-06-27T05:10:42.073Z,13.87
2018-06-27T05:13:10.588Z,13.17
2018-06-27T05:15:39.009Z,12.87
2018-06-27T05:18:07.453Z,13.57
2018-06-27T05:20:35.849Z,14.43
2018-06-27T05:23:04.377Z,13.97
2018-06-27T05:25:32.791Z,13.77
2018-06-27T05:28:01.480Z,14.03
2018-06-27T05:30:29.884Z,14.33
2018-06-27T05:32:58.319Z,14.00
2018-06-27T05:35:26.785Z,13.83
2018-06-27T05:37:55.185Z,13.77
2018-06-27T05:40:23.973Z,13.30
2018-06-27T05:42:52.360Z,13.67
2018-06-27T05:45:20.764Z,14.67
2018-06-27T05:47:49.160Z,15.07
2018-06-27T05:50:17.786Z,16.50
2018-06-27T05:52:46.330Z,16.03
2018-06-27T05:55:14.777Z,16.77
2018-06-27T05:57:43.233Z,17.10
2018-06-27T06:00:13.064Z,16.23
2018-06-27T06:02:41.778Z,15.37
2018-06-27T06:05:10.424Z,15.87
2018-06-27T06:07:38.810Z,15.73
2018-06-27T06:10:07.251Z,15.20
2018-06-27T06:12:35.936Z,16.40
2018-06-27T06:15:04.580Z,16.97
2018-06-27T06:17:33.020Z,16.50
2018-06-27T06:20:01.520Z,17.23
2018-06-27T06:22:30.496Z,17.73
2018-06-27T06:24:58.872Z,16.13
2018-06-27T06:27:27.341Z,16.67
2018-06-27T06:29:55.861Z,17.47
2018-06-27T06:32:24.298Z,16.73
2018-06-27T06:34:52.902Z,17.10
2018-06-27T06:37:21.315Z,17.47
2018-06-27T06:39:50.167Z,16.70
2018-06-27T06:42:18.617Z,17.00
2018-06-27T06:44:47.092Z,17.53
2018-06-27T06:47:15.834Z,17.67
2018-06-27T06:49:44.305Z,17.07
2018-06-27T06:52:12.777Z,16.93
2018-06-27T06:54:41.230Z,17.67
2018-06-27T06:57:09.653Z,17.73
2018-06-27T06:59:38.072Z,17.70
2018-06-27T07:02:07.819Z,17.07
2018-06-27T07:04:36.457Z,19.27
2018-06-27T07:07:04.596Z,17.77
2018-06-27T07:09:32.962Z,18.13
2018-06-27T07:12:01.506Z,18.73
2018-06-27T07:14:29.924Z,19.17
2018-06-27T07:16:58.303Z,17.90
2018-06-27T07:19:26.753Z,19.80
2018-06-27T07:21:55.378Z,19.23
2018-06-27T07:24:23.743Z,17.90
2018-06-27T07:26:52.103Z,18.80
2018-06-27T07:29:20.513Z,17.97
2018-06-27T07:31:49.938Z,20.20
2018-06-27T07:34:18.374Z,19.80
2018-06-27T07:36:46.812Z,20.83
2018-06-27T07:39:15.505Z,19.73
2018-06-27T07:41:43.881Z,19.80
2018-06-27T07:44:12.251Z,19.10
2018-06-27T07:46:40.693Z,21.63
2018-06-27T07:49:09.117Z,20.57
2018-06-27T07:51:37.827Z,19.70
2018-06-27T07:54:06.201Z,22.13
2018-06-27T07:56:34.541Z,21.37
2018-06-27T07:59:02.867Z,21.87
2018-06-27T08:01:31.206Z,19.90
2018-06-27T08:03:59.729Z,18.37
2018-06-27T08:06:58.882Z,19.57
2018-06-27T08:09:27.257Z,18.13
2018-06-27T08:11:55.588Z,17.00
2018-06-27T08:14:23.995Z,16.47
2018-06-27T08:16:52.697Z,18.53
2018-06-27T08:19:22.433Z,17.33
2018-06-27T08:21:51.495Z,17.67
2018-06-27T08:24:20.559Z,20.47
2018-06-27T08:26:49.622Z,17.37
2018-06-27T08:29:19.258Z,18.73
2018-06-27T08:31:48.303Z,15.63
2018-06-27T08:34:17.818Z,18.67
2018-06-27T08:36:46.856Z,17.23
2018-06-27T08:39:15.929Z,15.83
2018-06-27T08:41:45.698Z,19.83
2018-06-27T08:44:14.031Z,18.93
2018-06-27T08:46:42.405Z,16.47
2018-06-27T08:49:11.400Z,17.50
2018-06-27T08:51:39.780Z,18.03
2018-06-27T08:54:08.112Z,17.77
2018-06-27T08:56:37.149Z,16.57
2018-06-27T08:59:05.636Z,16.50
2018-06-27T09:01:34.035Z,17.63
2018-06-27T09:04:02.453Z,20.30
2018-06-27T09:06:30.852Z,18.30
2018-06-27T09:08:59.225Z,18.63
2018-06-27T09:11:27.589Z,18.23
2018-06-27T09:13:56.697Z,17.90
2018-06-27T09:16:25.807Z,18.63
2018-06-27T09:18:56.785Z,20.57
2018-06-27T09:21:25.749Z,19.23
2018-06-27T09:23:54.162Z,18.37
2018-06-27T09:26:22.594Z,18.50
2018-06-27T09:28:51.097Z,16.50
2018-06-27T09:31:19.591Z,14.80
2018-06-27T09:33:48.021Z,17.40
2018-06-27T09:36:16.351Z,16.87
2018-06-27T09:38:44.809Z,16.80
2018-06-27T09:41:13.206Z,18.90
2018-06-27T09:43:41.556Z,21.20
2018-06-27T09:46:09.979Z,20.63
2018-06-27T09:48:38.334Z,16.73
2018-06-27T09:51:07.067Z,20.77
2018-06-27T09:53:35.441Z,18.00
2018-06-27T09:56:03.859Z,18.63
2018-06-27T09:58:32.185Z,20.57
2018-06-27T10:01:00.629Z,18.23
2018-06-27T10:03:29.060Z,20.77
2018-06-27T10:05:57.538Z,19.43
2018-06-27T10:08:25.903Z,22.60
2018-06-27T10:10:54.238Z,20.67
2018-06-27T10:13:22.588Z,18.90
2018-06-27T10:15:51.036Z,21.10
2018-06-27T10:18:19.487Z,17.53
2018-06-27T10:20:47.867Z,22.47
2018-06-27T10:23:16.189Z,18.67
2018-06-27T10:25:44.641Z,15.83
2018-06-27T10:28:13.048Z,22.20
2018-06-27T10:30:41.425Z,16.27
2018-06-27T10:33:09.806Z,18.63
2018-06-27T10:35:38.135Z,19.23
2018-06-27T10:38:06.505Z,18.87
2018-06-27T10:40:34.894Z,13.33
2018-06-27T10:43:03.274Z,15.97
2018-06-27T10:45:31.689Z,16.63
2018-06-27T10:48:00.045Z,14.20
2018-06-27T10:50:28.430Z,15.40
2018-06-27T10:52:56.784Z,19.43
2018-06-27T10:55:25.464Z,18.00
2018-06-27T10:57:53.810Z,17.87
2018-06-27T11:00:22.149Z,15.97
2018-06-27T11:02:50.535Z,15.63
2018-06-27T11:05:19.172Z,14.53
2018-06-27T11:07:47.497Z,14.63
2018-06-27T11:10:15.568Z,16.33
2018-06-27T11:12:43.910Z,17.47
2018-06-27T11:15:12.300Z,13.40
2018-06-27T11:17:40.652Z,13.67
2018-06-27T11:20:09.050Z,16.37
2018-06-27T11:22:37.462Z,11.70
2018-06-27T11:25:05.875Z,16.77
2018-06-27T11:27:34.199Z,17.83
2018-06-27T11:30:02.582Z,18.47
2018-06-27T11:32:30.973Z,13.93
2018-06-27T11:35:00.416Z,14.93
2018-06-27T11:37:28.784Z,18.40
2018-06-27T11:39:57.123Z,20.23
2018-06-27T11:42:25.507Z,13.47
2018-06-27T11:44:53.866Z,14.10
2018-06-27T11:47:22.201Z,15.57
2018-06-27T11:49:50.587Z,12.77
2018-06-27T11:52:19.026Z,12.90
2018-06-27T11:54:51.585Z,18.30
2018-06-27T11:57:19.692Z,14.93
2018-06-27T11:59:48.024Z,9.93
2018-06-27T12:02:16.386Z,14.30
2018-06-27T12:04:44.983Z,14.13
2018-06-27T12:07:13.322Z,14.87
2018-06-27T12:09:41.705Z,11.63
2018-06-27T12:12:10.061Z,14.43
2018-06-27T12:14:38.387Z,13.67
2018-06-27T12:17:07.021Z,15.40
2018-06-27T12:19:35.518Z,15.20
2018-06-27T12:22:03.723Z,12.90
2018-06-27T12:24:32.086Z,10.90
2018-06-27T12:27:00.450Z,11.47
2018-06-27T12:29:28.795Z,11.80
2018-06-27T12:31:57.151Z,15.40
2018-06-27T12:34:25.511Z,14.00
2018-06-27T12:36:53.879Z,9.67
2018-06-27T12:39:22.221Z,9.03
2018-06-27T12:41:50.620Z,12.97
2018-06-27T12:44:18.957Z,9.80
2018-06-27T12:46:47.337Z,8.53
2018-06-27T12:49:15.758Z,11.30
2018-06-27T12:51:44.286Z,11.00
2018-06-27T12:54:12.684Z,12.57
2018-06-27T12:56:41.445Z,14.37
2018-06-27T12:59:09.827Z,12.23
2018-06-27T13:01:38.236Z,12.67
2018-06-27T13:04:06.598Z,9.80
2018-06-27T13:06:35.152Z,9.80
2018-06-27T13:09:03.895Z,9.63
2018-06-27T13:11:32.488Z,11.73
2018-06-27T13:14:00.891Z,11.07
2018-06-27T13:16:29.341Z,10.60
2018-06-27T13:18:57.752Z,11.00
2018-06-27T13:21:26.139Z,10.07
2018-06-27T13:23:54.527Z,8.60
2018-06-27T13:26:22.908Z,8.53
2018-06-27T13:28:51.294Z,8.17
2018-06-27T13:31:20.052Z,6.73
2018-06-27T13:33:48.154Z,6.90
2018-06-27T13:36:16.556Z,8.50
2018-06-27T13:38:44.905Z,7.13
2018-06-27T13:41:13.372Z,5.33
2018-06-27T13:43:41.751Z,7.53
2018-06-27T13:46:10.103Z,7.60
2018-06-27T13:48:38.485Z,6.43
2018-06-27T13:51:06.941Z,7.00
2018-06-27T13:53:35.346Z,7.27
2018-06-27T13:56:03.795Z,6.27
2018-06-27T13:58:32.190Z,6.27
2018-06-27T14:01:01.367Z,7.03
2018-06-27T14:03:29.473Z,5.23
2018-06-27T14:05:57.829Z,6.90
2018-06-27T14:08:26.229Z,6.27
2018-06-27T14:10:54.614Z,7.00
2018-06-27T14:13:23.504Z,6.27
2018-06-27T14:15:52.079Z,5.70
2018-06-27T14:18:20.502Z,6.17
2018-06-27T14:20:49.588Z,6.23
2018-06-27T14:23:17.893Z,5.93
2018-06-27T14:25:46.248Z,6.00
2018-06-27T14:28:14.627Z,5.80
2018-06-27T14:30:43.210Z,5.87
2018-06-27T14:33:12.926Z,4.90
2018-06-27T14:35:41.567Z,6.50
2018-06-27T14:38:09.931Z,5.43
2018-06-27T14:40:38.501Z,5.87
2018-06-27T14:43:07.731Z,6.17
2018-06-27T14:45:36.165Z,6.73
2018-06-27T14:48:04.549Z,6.27
2018-06-27T14:50:33.139Z,5.97
2018-06-27T14:53:01.528Z,5.27
2018-06-27T14:55:30.093Z,6.20
2018-06-27T14:57:58.506Z,5.13
2018-06-27T15:00:26.965Z,5.90
2018-06-27T15:02:55.392Z,6.30
2018-06-27T15:05:24.096Z,6.20
2018-06-27T15:07:52.465Z,5.40
2018-06-27T15:10:20.853Z,6.00
2018-06-27T15:12:49.233Z,5.23
2018-06-27T15:15:17.631Z,5.47
2018-06-27T15:17:45.947Z,5.30
2018-06-27T15:20:14.271Z,5.23
2018-06-27T15:22:42.646Z,5.33
2018-06-27T15:25:11.020Z,5.27
2018-06-27T15:27:39.490Z,5.70
2018-06-27T15:30:07.889Z,5.27
2018-06-27T15:32:36.296Z,4.73
2018-06-27T15:35:05.425Z,5.47
2018-06-27T15:37:33.892Z,4.80
2018-06-27T15:40:02.221Z,5.20
2018-06-27T15:42:30.560Z,5.60
2018-06-27T15:44:58.903Z,4.80
2018-06-27T15:47:27.375Z,5.10
2018-06-27T15:49:55.763Z,5.60
2018-06-27T15:52:24.218Z,5.77
2018-06-27T15:54:52.632Z,5.50
2018-06-27T15:57:21.586Z,5.70
2018-06-27T15:59:53.244Z,5.40
2018-06-27T16:02:22.228Z,5.50
2018-06-27T16:04:50.604Z,5.00
2018-06-27T16:07:19.560Z,5.27
2018-06-27T16:09:49.114Z,4.80
2018-06-27T16:12:17.492Z,5.03
2018-06-27T16:14:46.187Z,4.77
2018-06-27T16:17:14.946Z,4.23
2018-06-27T16:19:43.558Z,4.77
2018-06-27T16:22:11.934Z,4.53
2018-06-27T16:27:20.046Z,4.80
2018-06-27T16:29:49.731Z,4.70
2018-06-27T16:32:18.086Z,4.93
2018-06-27T16:34:46.492Z,3.83
2018-06-27T16:37:14.588Z,4.40
2018-06-27T16:39:43.042Z,3.43
2018-06-27T16:42:11.145Z,4.17
2018-06-27T16:44:39.888Z,4.30
2018-06-27T16:47:08.249Z,4.87
2018-06-27T16:49:36.544Z,5.00
2018-06-27T16:52:04.946Z,6.10
2018-06-27T16:54:33.275Z,5.80
2018-06-27T16:57:01.665Z,6.90
2018-06-27T16:59:30.053Z,8.07
2018-06-27T17:01:58.471Z,6.70
2018-06-27T17:04:26.857Z,5.40
2018-06-27T17:06:55.225Z,7.13
2018-06-27T17:09:23.636Z,6.37
2018-06-27T17:11:52.006Z,6.50
2018-06-27T17:14:20.374Z,6.90
2018-06-27T17:16:48.730Z,5.70
2018-06-27T17:19:17.402Z,5.80
2018-06-27T17:21:45.834Z,7.00
2018-06-27T17:24:14.334Z,6.80
2018-06-27T17:26:42.606Z,7.97
2018-06-27T17:29:11.257Z,8.80
2018-06-27T17:31:39.918Z,7.13
2018-06-27T17:34:08.427Z,6.10
2018-06-27T17:36:37.158Z,5.90
2018-06-27T17:39:07.873Z,6.70
2018-06-27T17:41:36.575Z,6.00
2018-06-27T17:44:05.181Z,7.10
2018-06-27T17:46:33.497Z,6.37
2018-06-27T17:49:01.937Z,8.20
2018-06-27T17:51:30.452Z,8.57
2018-06-27T17:53:58.930Z,8.87
2018-06-27T17:56:27.497Z,9.73
2018-06-27T17:58:56.470Z,9.73
2018-06-27T18:01:24.926Z,8.70
2018-06-27T18:03:53.687Z,9.40
2018-06-27T18:06:22.166Z,9.77
2018-06-27T18:08:50.945Z,8.83
2018-06-27T18:11:19.389Z,8.47
2018-06-27T18:13:47.809Z,7.83
2018-06-27T18:16:16.807Z,8.23
2018-06-27T18:18:45.254Z,9.30
2018-06-27T18:21:13.741Z,8.47
2018-06-27T18:23:42.271Z,8.00
2018-06-27T18:26:10.732Z,7.80
2018-06-27T18:28:39.118Z,5.83
2018-06-27T18:31:07.548Z,6.33
2018-06-27T18:33:36.292Z,6.67
2018-06-27T18:36:04.769Z,7.90
2018-06-27T18:38:33.161Z,9.23
2018-06-27T18:41:01.596Z,8.93
2018-06-27T18:43:30.000Z,9.57
2018-06-27T18:45:58.516Z,8.97
2018-06-27T18:48:27.105Z,9.63
2018-06-27T18:50:55.510Z,9.50
2018-06-27T18:53:24.028Z,9.17
2018-06-27T18:55:52.538Z,9.10
2018-06-27T18:58:21.612Z,9.00
2018-06-27T19:00:50.059Z,8.67
2018-06-27T19:03:18.498Z,9.17
2018-06-27T19:05:47.538Z,10.20
2018-06-27T19:08:16.098Z,9.40
2018-06-27T19:10:44.519Z,9.37
2018-06-27T19:13:33.529Z,9.03
2018-06-27T19:16:02.062Z,9.80
2018-06-27T19:18:30.557Z,8.53
2018-06-27T19:20:58.987Z,9.53
2018-06-27T19:23:27.503Z,9.13
2018-06-27T19:25:55.907Z,9.43
2018-06-27T19:28:24.348Z,9.60
2018-06-27T19:30:52.704Z,9.70
2018-06-27T19:33:21.424Z,9.53
2018-06-27T19:35:50.461Z,9.30
2018-06-27T19:38:18.877Z,8.87
2018-06-27T19:40:47.355Z,9.50
2018-06-27T19:43:16.095Z,9.63
2018-06-27T19:45:44.660Z,9.97
2018-06-27T19:48:13.116Z,9.73
2018-06-27T19:50:41.507Z,9.50
2018-06-27T19:53:09.885Z,9.93
2018-06-27T19:55:38.687Z,9.70
2018-06-27T19:58:07.105Z,9.40
2018-06-27T20:00:35.537Z,9.60
2018-06-27T20:03:04.242Z,10.50
2018-06-27T20:05:32.787Z,9.90
2018-06-27T20:08:01.415Z,9.73
2018-06-27T20:10:29.721Z,9.53
2018-06-27T20:12:58.183Z,9.50
2018-06-27T20:15:26.849Z,10.47
2018-06-27T20:17:55.475Z,9.57
2018-06-27T20:20:23.881Z,9.80
2018-06-27T20:22:52.282Z,11.23
2018-06-27T20:25:20.745Z,11.17
2018-06-27T20:27:49.234Z,9.90
2018-06-27T20:30:17.639Z,10.47
2018-06-27T20:32:46.204Z,11.13
2018-06-27T20:35:14.628Z,10.83
2018-06-27T20:37:44.307Z,11.33
2018-06-27T20:40:12.719Z,11.30
2018-06-27T20:42:41.127Z,10.90
2018-06-27T20:45:09.497Z,11.13
2018-06-27T20:47:37.620Z,11.40
2018-06-27T20:50:06.114Z,10.73
2018-06-27T20:52:34.576Z,11.63
2018-06-27T20:55:03.076Z,10.70
2018-06-27T20:57:31.472Z,11.83
2018-06-27T21:00:00.140Z,10.67
2018-06-27T21:02:28.606Z,9.67
2018-06-27T21:04:57.524Z,10.00
2018-06-27T21:07:25.944Z,10.17
2018-06-27T21:09:54.436Z,10.80
2018-06-27T21:12:22.655Z,9.97
2018-06-27T21:14:51.113Z,10.70
2018-06-27T21:17:19.339Z,10.83
2018-06-27T21:19:47.850Z,11.27
2018-06-27T21:22:16.287Z,11.13
2018-06-27T21:24:45.707Z,10.53
2018-06-27T21:27:14.443Z,10.53
2018-06-27T21:29:43.024Z,10.00
2018-06-27T21:32:11.828Z,10.50
2018-06-27T21:34:41.176Z,9.67
2018-06-27T21:37:09.644Z,9.77
2018-06-27T21:39:38.066Z,9.43
2018-06-27T21:42:06.518Z,9.70
2018-06-27T21:44:34.933Z,9.90
2018-06-27T21:47:06.637Z,9.67
2018-06-27T21:49:35.028Z,10.40
2018-06-27T21:52:03.544Z,9.93
2018-06-27T21:54:32.367Z,10.20
2018-06-27T21:57:00.738Z,9.53
2018-06-27T21:59:29.140Z,10.37
2018-06-27T22:01:57.744Z,10.60
2018-06-27T22:04:26.430Z,10.37
2018-06-27T22:06:54.846Z,10.90
2018-06-27T22:09:23.869Z,11.40
2018-06-27T22:11:52.309Z,10.63
2018-06-27T22:14:20.781Z,11.83
2018-06-27T22:16:49.425Z,11.60
2018-06-27T22:19:18.136Z,11.87
2018-06-27T22:21:46.536Z,11.97
2018-06-27T22:24:15.030Z,12.70
2018-06-27T22:26:43.441Z,12.67
2018-06-27T22:29:12.090Z,12.23
2018-06-27T22:31:41.236Z,12.63
2018-06-27T22:34:09.730Z,13.37
2018-06-27T22:36:38.214Z,13.80
2018-06-27T22:39:08.130Z,13.57
2018-06-27T22:41:36.584Z,13.43
2018-06-27T22:44:05.205Z,14.13
2018-06-27T22:46:33.813Z,13.90
2018-06-27T22:49:02.253Z,13.70
2018-06-27T22:51:30.631Z,14.40
2018-06-27T22:53:59.138Z,13.70
2018-06-27T22:56:28.038Z,14.03
2018-06-27T22:58:56.492Z,15.43
2018-06-27T23:01:24.942Z,14.47
2018-06-27T23:03:53.292Z,15.20
2018-06-27T23:06:21.827Z,13.90
2018-06-27T23:08:50.281Z,14.30
2018-06-27T23:11:18.713Z,15.33
2018-06-27T23:13:47.095Z,14.97
2018-06-27T23:16:16.089Z,14.20
2018-06-27T23:18:44.484Z,14.67
2018-06-27T23:21:12.888Z,13.93
2018-06-27T23:23:41.295Z,15.47
2018-06-27T23:26:09.698Z,15.17
2018-06-27T23:28:38.099Z,15.20
2018-06-27T23:31:06.801Z,14.67
2018-06-27T23:33:35.185Z,14.60
2018-06-27T23:36:03.661Z,14.73
2018-06-27T23:38:32.344Z,15.27
2018-06-27T23:41:00.696Z,14.67
2018-06-27T23:43:29.119Z,13.73
2018-06-27T23:45:57.237Z,14.43
2018-06-27T23:48:25.574Z,14.47
2018-06-27T23:50:53.991Z,14.17
2018-06-27T23:53:22.392Z,13.50
2018-06-27T23:55:50.809Z,14.10
2018-06-27T23:58:19.252Z,13.90
